Time;durP1;ratioP1;P1;durP2;ratioP2;P2;SDS_P1;SDS_P2;PMS_P1;PMS_P2;Temp;Humidity;BMP_temperature;BMP_pressure;BME280_temperature;BME280_humidity;BME280_pressure;Samples;Min_cycle;Max_cycle;Signal;HPM_P1;HPM_P2
2021/11/24 00:01:08;;;;;;;9.23;7.07;;;;;;;5.44;100.00;101811.56;4973209;28;20180;-77
2021/11/24 00:03:33;;;;;;;21.50;11.37;;;;;;;5.44;100.00;101809.66;4972884;28;20687;-76
2021/11/24 00:05:59;;;;;;;24.97;12.47;;;;;;;5.45;100.00;101805.06;4971507;28;20249;-76
2021/11/24 00:08:24;;;;;;;20.97;11.03;;;;;;;5.46;100.00;101807.53;4971636;28;20181;-76
2021/11/24 00:10:49;;;;;;;15.97;9.63;;;;;;;5.46;100.00;101809.41;4972918;28;20180;-77
2021/11/24 00:13:15;;;;;;;11.90;8.20;;;;;;;5.45;100.00;101808.59;4972781;28;20256;-77
2021/11/24 00:15:40;;;;;;;22.77;12.47;;;;;;;5.43;100.00;101799.88;4972696;28;20734;-77
2021/11/24 00:18:05;;;;;;;19.63;9.93;;;;;;;5.42;100.00;101794.72;4972705;28;20200;-76
2021/11/24 00:20:31;;;;;;;11.27;7.27;;;;;;;5.42;100.00;101800.13;4972759;28;20487;-77
2021/11/24 00:22:56;;;;;;;10.07;7.90;;;;;;;5.40;100.00;101803.09;4972654;28;20237;-77
2021/11/24 00:25:22;;;;;;;15.27;10.43;;;;;;;5.38;100.00;101795.22;4972638;28;20217;-77
2021/11/24 00:27:47;;;;;;;13.13;8.93;;;;;;;5.36;100.00;101799.25;4972677;28;20178;-77
2021/11/24 00:30:13;;;;;;;15.33;11.47;;;;;;;5.33;100.00;101800.53;4972676;28;20268;-77
2021/11/24 00:32:38;;;;;;;15.97;10.07;;;;;;;5.32;100.00;101793.47;4972479;28;20177;-76
2021/11/24 00:35:05;;;;;;;11.73;9.07;;;;;;;5.31;100.00;101799.13;4972441;28;20185;-77
2021/11/24 00:37:31;;;;;;;13.50;9.90;;;;;;;5.33;100.00;101794.28;4972362;28;20181;-77
2021/11/24 00:39:56;;;;;;;11.50;7.40;;;;;;;5.34;100.00;101790.50;4972223;28;20185;-77
2021/11/24 00:42:22;;;;;;;5.27;4.77;;;;;;;5.36;100.00;101796.53;4972583;28;20548;-77
2021/11/24 00:44:47;;;;;;;20.30;4.20;;;;;;;5.37;100.00;101792.75;4971289;28;20356;-76
2021/11/24 00:47:12;;;;;;;3.80;3.60;;;;;;;5.38;100.00;101786.25;4972576;28;20178;-76
2021/11/24 00:49:39;;;;;;;7.00;5.43;;;;;;;5.39;100.00;101793.31;4972564;28;20174;-76
2021/11/24 00:52:05;;;;;;;10.40;5.37;;;;;;;5.41;100.00;101795.78;4972645;28;20280;-76
2021/11/24 00:54:31;;;;;;;14.03;8.63;;;;;;;5.41;100.00;101796.59;4972572;28;20173;-76
2021/11/24 00:56:56;;;;;;;8.53;7.10;;;;;;;5.42;100.00;101792.84;4972360;28;20194;-77
2021/11/24 00:59:21;;;;;;;11.67;7.63;;;;;;;5.43;100.00;101799.88;4972516;28;20661;-76
2021/11/24 01:01:47;;;;;;;14.20;8.83;;;;;;;5.44;100.00;101789.88;4972589;28;20533;-77
2021/11/24 01:04:12;;;;;;;12.30;9.03;;;;;;;5.44;100.00;101790.69;4972391;28;20671;-77
2021/11/24 01:06:37;;;;;;;13.30;8.57;;;;;;;5.44;100.00;101779.84;4972583;28;20636;-76
2021/11/24 01:09:03;;;;;;;10.40;9.50;;;;;;;5.44;100.00;101779.84;4972440;28;20180;-76
2021/11/24 01:11:29;;;;;;;5.77;4.93;;;;;;;5.42;100.00;101787.41;4972402;28;20406;-76
2021/11/24 01:13:55;;;;;;;6.50;6.00;;;;;;;5.42;100.00;101786.59;4972218;28;20178;-76
2021/11/24 01:16:20;;;;;;;5.57;3.03;;;;;;;5.41;100.00;101784.94;4972329;28;20181;-77
2021/11/24 01:18:46;;;;;;;15.77;10.50;;;;;;;5.42;100.00;101786.59;4972349;28;20184;-77
2021/11/24 01:21:11;;;;;;;8.43;4.47;;;;;;;5.42;100.00;101786.59;4972372;28;20174;-77
2021/11/24 01:23:36;;;;;;;4.23;4.03;;;;;;;5.41;100.00;101782.22;4972244;28;20206;-77
2021/11/24 01:26:02;;;;;;;23.07;11.10;;;;;;;5.42;100.00;101787.41;4972286;28;20177;-77
2021/11/24 01:28:27;;;;;;;22.20;12.70;;;;;;;5.41;100.00;101785.75;4972642;28;20178;-77
2021/11/24 01:30:53;;;;;;;13.23;9.80;;;;;;;5.43;100.00;101785.53;4972317;28;20325;-77
2021/11/24 01:33:18;;;;;;;16.40;9.47;;;;;;;5.43;100.00;101788.22;4972235;28;20261;-77
2021/11/24 01:35:44;;;;;;;14.27;11.17;;;;;;;5.42;100.00;101781.16;4972037;28;20189;-76
2021/11/24 01:38:09;;;;;;;10.20;7.80;;;;;;;5.44;100.00;101782.56;4971956;28;20189;-77
2021/11/24 01:40:35;;;;;;;12.17;8.90;;;;;;;5.44;100.00;101776.31;4970821;28;20587;-77
2021/11/24 01:43:01;;;;;;;9.57;7.77;;;;;;;5.46;100.00;101782.31;4972233;28;20634;-77
2021/11/24 01:45:27;;;;;;;11.90;7.87;;;;;;;5.47;100.00;101773.94;4972297;28;20190;-76
2021/11/24 01:47:52;;;;;;;8.03;6.17;;;;;;;5.47;100.00;101767.69;4971987;28;20178;-77
2021/11/24 01:50:20;;;;;;;10.03;7.33;;;;;;;5.47;100.00;101763.09;4972844;28;20177;-77
2021/11/24 01:52:46;;;;;;;18.30;8.77;;;;;;;5.48;100.00;101763.91;4975800;28;20264;-77
2021/11/24 01:55:13;;;;;;;11.57;8.17;;;;;;;5.46;100.00;101747.09;4975608;28;20248;-77
2021/11/24 01:57:41;;;;;;;11.53;8.10;;;;;;;5.47;100.00;101754.16;4975741;28;20194;-77
2021/11/24 02:00:08;;;;;;;15.17;10.63;;;;;;;5.47;100.00;101751.44;4975598;28;20213;-77
2021/11/24 02:02:34;;;;;;;8.03;6.23;;;;;;;5.48;100.00;101743.06;4975309;28;20190;-77
2021/11/24 02:04:59;;;;;;;7.93;5.03;;;;;;;5.48;100.00;101748.47;4975131;28;20224;-77
2021/11/24 02:07:25;;;;;;;17.80;10.17;;;;;;;5.48;100.00;101740.34;4975629;28;20182;-76
2021/11/24 02:09:50;;;;;;;13.43;9.07;;;;;;;5.49;100.00;101736.56;4974386;28;20174;-77
2021/11/24 02:12:16;;;;;;;6.73;4.83;;;;;;;5.49;100.00;101741.16;4975318;28;20180;-77
2021/11/24 02:14:43;;;;;;;15.00;7.77;;;;;;;5.50;100.00;101734.69;4975132;28;20511;-77
2021/11/24 02:17:09;;;;;;;6.90;5.27;;;;;;;5.51;100.00;101728.22;4975317;28;20182;-77
2021/11/24 02:19:35;;;;;;;9.93;5.90;;;;;;;5.50;100.00;101723.88;4975186;28;20194;-77
2021/11/24 02:22:02;;;;;;;7.53;6.83;;;;;;;5.51;100.00;101723.63;4975313;28;20169;-77
2021/11/24 02:24:31;;;;;;;6.80;2.43;;;;;;;5.50;100.00;101719.25;4975047;28;20209;-77
2021/11/24 02:26:58;;;;;;;3.30;2.00;;;;;;;5.50;100.00;101713.03;4974909;28;20634;-77
2021/11/24 02:29:23;;;;;;;8.37;3.90;;;;;;;5.51;100.00;101717.38;4972061;28;20197;-77
2021/11/24 02:31:52;;;;;;;3.30;3.10;;;;;;;5.52;100.00;101714.41;4974767;28;20185;-77
2021/11/24 02:34:18;;;;;;;7.00;6.30;;;;;;;5.52;100.00;101709.00;4975009;28;20261;-77
2021/11/24 02:36:44;;;;;;;2.57;2.20;;;;;;;5.54;100.00;101711.44;4973394;28;20185;-77
2021/11/24 02:39:11;;;;;;;4.87;4.50;;;;;;;5.53;100.00;101707.91;4974916;28;20650;-77
2021/11/24 02:41:37;;;;;;;10.07;6.67;;;;;;;5.54;100.00;101706.03;4974874;28;20576;-77
2021/11/24 02:44:16;;;;;;;5.47;4.60;;;;;;;5.53;100.00;101707.09;4974610;28;20212;-77
2021/11/24 02:46:43;;;;;;;3.20;2.67;;;;;;;5.54;100.00;101708.75;4974732;28;20641;-76
2021/11/24 02:49:08;;;;;;;4.40;3.97;;;;;;;5.53;100.00;101710.63;4974625;28;20332;-77
2021/11/24 02:51:33;;;;;;;2.23;2.07;;;;;;;5.51;100.00;101695.69;4974792;28;20697;-77
2021/11/24 02:53:59;;;;;;;2.17;1.97;;;;;;;5.51;100.00;101693.81;4974681;28;20185;-76
2021/11/24 02:56:24;;;;;;;12.13;6.30;;;;;;;5.50;100.00;101697.56;4974308;28;20197;-76
2021/11/24 02:58:49;;;;;;;4.93;1.40;;;;;;;5.52;100.00;101697.31;4974514;28;20212;-76
2021/11/24 03:01:15;;;;;;;2.13;2.00;;;;;;;5.50;100.00;101692.16;4974236;28;20261;-76
2021/11/24 03:03:40;;;;;;;5.63;3.80;;;;;;;5.50;100.00;101691.34;4974310;28;20297;-76
2021/11/24 03:06:05;;;;;;;3.33;3.13;;;;;;;5.52;100.00;101702.75;4973191;28;20649;-75
2021/11/24 03:08:31;;;;;;;7.00;3.83;;;;;;;5.51;100.00;101699.22;4974367;28;20177;-76
2021/11/24 03:10:56;;;;;;;5.63;4.87;;;;;;;5.50;100.00;101694.88;4973164;28;20285;-76
2021/11/24 03:13:22;;;;;;;4.13;3.50;;;;;;;5.51;100.00;101688.38;4974204;28;20269;-77
2021/11/24 03:15:47;;;;;;;5.70;4.10;;;;;;;5.50;100.00;101681.31;4973933;28;20173;-77
2021/11/24 03:18:12;;;;;;;11.57;7.50;;;;;;;5.49;100.00;101690.50;4974007;28;20261;-76
2021/11/24 03:20:38;;;;;;;10.07;8.03;;;;;;;5.50;100.00;101685.91;4974053;28;20181;-76
2021/11/24 03:23:03;;;;;;;9.30;7.00;;;;;;;5.48;100.00;101686.13;4975787;28;20693;-77
2021/11/24 03:25:29;;;;;;;5.40;4.77;;;;;;;5.48;100.00;101688.84;4976879;28;20216;-76
2021/11/24 03:27:54;;;;;;;7.33;5.57;;;;;;;5.46;100.00;101690.16;4974494;28;20220;-76
2021/11/24 03:30:23;;;;;;;1.53;1.43;;;;;;;5.46;100.00;101691.00;4974246;28;20634;-77
2021/11/24 03:32:49;;;;;;;14.60;8.03;;;;;;;5.45;100.00;101683.09;4974158;28;20182;-76
2021/11/24 03:35:16;;;;;;;13.50;6.93;;;;;;;5.46;100.00;101684.75;4973836;28;20185;-77
2021/11/24 03:37:42;;;;;;;13.67;9.10;;;;;;;5.48;100.00;101674.47;4974041;28;20186;-77
2021/11/24 03:40:08;;;;;;;6.93;5.83;;;;;;;5.50;100.00;101680.50;4973964;28;20185;-76
2021/11/24 03:42:35;;;;;;;5.17;3.87;;;;;;;5.51;100.00;101680.25;4973837;28;20676;-77
2021/11/24 03:45:01;;;;;;;7.20;6.10;;;;;;;5.52;100.00;101679.19;4973457;28;20300;-76
2021/11/24 03:47:26;;;;;;;9.37;6.20;;;;;;;5.53;100.00;101674.56;4973768;28;20256;-76
2021/11/24 03:49:52;;;;;;;5.03;4.57;;;;;;;5.54;100.00;101665.38;4973863;28;20206;-76
2021/11/24 03:52:18;;;;;;;7.97;3.63;;;;;;;5.53;100.00;101664.56;4973709;28;20173;-77
2021/11/24 03:54:43;;;;;;;3.27;2.00;;;;;;;5.55;100.00;101661.59;4973504;28;20712;-76
2021/11/24 03:57:09;;;;;;;8.07;5.53;;;;;;;5.55;100.00;101658.88;4963812;28;20194;-76
2021/11/24 03:59:34;;;;;;;9.50;6.27;;;;;;;5.56;100.00;101655.09;4954247;28;20182;-77
2021/11/24 04:02:00;;;;;;;6.33;5.00;;;;;;;5.56;100.00;101653.22;4954160;28;20270;-77
2021/11/24 04:04:25;;;;;;;6.10;4.53;;;;;;;5.56;100.00;101655.09;4952901;28;20206;-76
2021/11/24 04:06:50;;;;;;;6.83;4.63;;;;;;;5.55;100.00;101648.84;4953860;28;20658;-77
2021/11/24 04:09:16;;;;;;;5.73;3.43;;;;;;;5.55;100.00;101658.88;4953815;28;20179;-76
2021/11/24 04:11:41;;;;;;;9.27;6.83;;;;;;;5.56;100.00;101658.63;4953902;28;20225;-76
2021/11/24 04:14:07;;;;;;;5.57;4.83;;;;;;;5.55;100.00;101651.56;4953234;28;20219;-77
2021/11/24 04:16:32;;;;;;;7.53;5.13;;;;;;;5.56;100.00;101649.69;4954501;28;20183;-76
2021/11/24 04:19:00;;;;;;;8.07;5.60;;;;;;;5.56;100.00;101641.53;4953892;28;20719;-76
2021/11/24 04:21:25;;;;;;;15.40;7.07;;;;;;;5.59;100.00;101649.19;4953903;28;20526;-76
2021/11/24 04:23:51;;;;;;;7.60;5.33;;;;;;;5.59;100.00;101651.88;4953900;28;20217;-76
2021/11/24 04:26:16;;;;;;;11.87;7.17;;;;;;;5.61;100.00;101650.56;4953686;28;20700;-76
2021/11/24 04:28:42;;;;;;;14.63;7.73;;;;;;;5.64;100.00;101654.66;4953878;28;20178;-77
2021/11/24 04:31:09;;;;;;;4.67;4.23;;;;;;;5.64;100.00;101650.09;4953592;28;20863;-76
2021/11/24 04:33:35;;;;;;;8.80;5.80;;;;;;;5.65;100.00;101650.91;4961116;28;20194;-77
2021/11/24 04:36:00;;;;;;;6.57;5.17;;;;;;;5.63;100.00;101643.00;4972606;28;20181;-76
2021/11/24 04:38:26;;;;;;;14.43;6.00;;;;;;;5.61;100.00;101633.47;4972916;28;20182;-76
2021/11/24 04:40:51;;;;;;;2.97;2.73;;;;;;;5.62;100.00;101645.97;4972905;28;20181;-76
2021/11/24 04:43:18;;;;;;;13.30;8.57;;;;;;;5.61;100.00;101645.13;4972624;28;20182;-77
2021/11/24 04:45:43;;;;;;;8.37;5.47;;;;;;;5.62;100.00;101645.97;4973094;28;20265;-76
2021/11/24 04:48:09;;;;;;;4.53;4.07;;;;;;;5.59;100.00;101541.56;4972849;28;20182;-77
2021/11/24 04:50:34;;;;;;;4.33;4.03;;;;;;;5.59;100.00;101598.50;4972823;28;20236;-76
2021/11/24 04:53:00;;;;;;;6.27;5.17;;;;;;;5.60;100.00;101605.56;4972695;28;20178;-76
2021/11/24 04:55:26;;;;;;;21.97;3.93;;;;;;;5.60;100.00;101596.59;4972231;28;20603;-77
2021/11/24 04:57:51;;;;;;;6.53;5.80;;;;;;;5.57;100.00;101584.38;4972240;28;20190;-77
2021/11/24 05:00:20;;;;;;;5.83;5.07;;;;;;;5.58;100.00;101590.59;4972373;28;20185;-77
2021/11/24 05:02:46;;;;;;;8.93;5.17;;;;;;;5.60;100.00;101585.75;4972811;28;20254;-77
2021/11/24 05:05:12;;;;;;;7.80;5.43;;;;;;;5.59;100.00;101593.06;4972338;28;20662;-76
2021/11/24 05:07:37;;;;;;;6.83;5.13;;;;;;;5.60;100.00;101589.28;4972652;28;20652;-77
2021/11/24 05:10:05;;;;;;;9.10;6.40;;;;;;;5.59;100.00;101581.41;4972497;28;20177;-77
2021/11/24 05:12:30;;;;;;;5.10;3.73;;;;;;;5.59;100.00;101576.81;4972465;28;20180;-76
2021/11/24 05:14:56;;;;;;;12.93;5.07;;;;;;;5.55;100.00;101581.09;4972349;28;20253;-76
2021/11/24 05:17:24;;;;;;;2.73;2.43;;;;;;;5.54;100.00;101584.06;4972456;28;20173;-77
2021/11/24 05:19:51;;;;;;;6.13;4.83;;;;;;;5.53;100.00;101588.66;4972542;28;20170;-77
2021/11/24 05:22:17;;;;;;;4.90;4.03;;;;;;;5.54;100.00;101587.59;4972141;28;20647;-76
2021/11/24 05:24:43;;;;;;;12.00;7.63;;;;;;;5.55;100.00;101581.09;4973540;28;20201;-77
2021/11/24 05:27:09;;;;;;;17.13;7.33;;;;;;;5.57;100.00;101588.97;4976337;28;20657;-77
2021/11/24 05:29:35;;;;;;;6.50;5.53;;;;;;;5.58;100.00;101593.31;4975426;28;20181;-77
2021/11/24 05:32:00;;;;;;;8.57;7.07;;;;;;;5.55;100.00;101580.28;4976296;28;20177;-77
2021/11/24 05:34:26;;;;;;;6.77;5.73;;;;;;;5.55;100.00;101583.00;4976269;28;20177;-76
2021/11/24 05:36:51;;;;;;;7.90;6.50;;;;;;;5.55;100.00;101574.84;4976071;28;20201;-76
2021/11/24 05:39:16;;;;;;;10.47;7.77;;;;;;;5.56;100.00;101584.63;4975170;28;20189;-76
2021/11/24 05:41:42;;;;;;;6.83;5.13;;;;;;;5.57;100.00;101580.84;4976152;28;20642;-77
2021/11/24 05:44:17;;;;;;;8.83;5.33;;;;;;;5.55;100.00;101581.09;4975977;28;20201;-77
2021/11/24 05:46:51;;;;;;;8.10;6.83;;;;;;;5.54;100.00;101584.06;4975999;28;20173;-76
2021/11/24 05:49:17;;;;;;;10.70;6.97;;;;;;;5.54;100.00;101584.06;4975102;28;20208;-76
2021/11/24 05:51:43;;;;;;;8.73;6.63;;;;;;;5.53;100.00;101591.38;4974315;28;20583;-76
2021/11/24 05:54:08;;;;;;;12.07;6.47;;;;;;;5.53;100.00;101587.84;4975826;28;20186;-77
2021/11/24 05:56:36;;;;;;;9.40;6.40;;;;;;;5.52;100.00;101586.19;4975877;28;20699;-77
2021/11/24 05:59:03;;;;;;;14.07;7.63;;;;;;;5.53;100.00;101587.84;4975629;28;20182;-77
2021/11/24 06:01:29;;;;;;;10.10;6.27;;;;;;;5.54;100.00;101584.06;4975740;28;20583;-77
2021/11/24 06:03:54;;;;;;;10.90;6.97;;;;;;;5.53;100.00;101580.53;4974086;28;20202;-77
2021/11/24 06:06:20;;;;;;;6.37;4.27;;;;;;;5.52;100.00;101569.94;4975375;28;20243;-77
2021/11/24 06:08:45;;;;;;;4.93;4.43;;;;;;;5.51;100.00;101569.13;4975790;28;20237;-77
2021/11/24 06:11:10;;;;;;;11.93;7.50;;;;;;;5.50;100.00;101577.50;4975487;28;20174;-77
2021/11/24 06:13:36;;;;;;;11.37;6.87;;;;;;;5.48;100.00;101575.00;4975144;28;20316;-77
2021/11/24 06:16:01;;;;;;;11.17;8.10;;;;;;;5.49;100.00;101565.00;4975109;28;20216;-77
2021/11/24 06:18:26;;;;;;;7.73;6.20;;;;;;;5.48;100.00;101574.19;4975364;28;20177;-77
2021/11/24 06:20:52;;;;;;;16.77;8.33;;;;;;;5.46;100.00;101566.31;4975256;28;20650;-77
2021/11/24 06:23:17;;;;;;;14.00;8.20;;;;;;;5.46;100.00;101573.63;4975029;28;20185;-76
2021/11/24 06:25:43;;;;;;;12.03;7.60;;;;;;;5.45;100.00;101566.56;4975060;28;20589;-77
2021/11/24 06:28:08;;;;;;;11.60;8.33;;;;;;;5.44;100.00;101560.31;4974914;28;20257;-76
2021/11/24 06:30:33;;;;;;;12.13;7.70;;;;;;;5.46;100.00;101566.31;4974802;28;20186;-77
2021/11/24 06:32:59;;;;;;;12.10;7.60;;;;;;;5.47;100.00;101567.13;4974647;28;20173;-76
2021/11/24 06:35:24;;;;;;;11.83;8.37;;;;;;;5.46;100.00;101568.22;4974489;28;20186;-76
2021/11/24 06:37:50;;;;;;;9.70;7.70;;;;;;;5.43;100.00;101566.00;4974170;28;20537;-76
2021/11/24 06:40:16;;;;;;;8.63;5.77;;;;;;;5.37;100.00;101559.69;4974629;28;20273;-77
2021/11/24 06:42:42;;;;;;;12.47;6.57;;;;;;;5.35;100.00;101561.81;4974486;28;20232;-76
2021/11/24 06:45:08;;;;;;;11.00;7.63;;;;;;;5.34;100.00;101558.28;4974282;28;20206;-77
2021/11/24 06:47:33;;;;;;;10.17;8.33;;;;;;;5.33;100.00;101553.13;4974508;28;20228;-77
2021/11/24 06:49:58;;;;;;;11.20;8.30;;;;;;;5.40;100.00;101556.50;4974687;28;20186;-77
2021/11/24 06:52:24;;;;;;;16.03;8.33;;;;;;;5.44;100.00;101560.31;4974269;28;20579;-77
2021/11/24 06:54:49;;;;;;;13.47;9.57;;;;;;;5.51;100.00;101558.28;4974323;28;20247;-77
2021/11/24 06:57:14;;;;;;;15.37;8.93;;;;;;;5.64;100.00;101565.19;4974323;28;20240;-77
2021/11/24 06:59:40;;;;;;;11.07;8.63;;;;;;;5.73;100.00;101568.31;4973838;28;20664;-77
2021/11/24 07:02:05;;;;;;;16.53;10.07;;;;;;;5.80;100.00;101569.78;4974220;28;20209;-76
2021/11/24 07:04:30;;;;;;;15.93;8.87;;;;;;;5.81;100.00;101566.00;4974163;28;20280;-77
2021/11/24 07:06:56;;;;;;;16.47;8.03;;;;;;;5.79;100.00;101568.13;4974558;28;20174;-77
2021/11/24 07:09:23;;;;;;;10.80;8.27;;;;;;;5.72;100.00;101578.34;4974072;28;20170;-77
2021/11/24 07:11:49;;;;;;;8.30;7.37;;;;;;;5.71;100.00;101563.13;4974034;28;20170;-77
2021/11/24 07:14:14;;;;;;;10.73;6.67;;;;;;;5.64;100.00;101576.03;4974023;28;20272;-76
2021/11/24 07:16:39;;;;;;;8.37;7.13;;;;;;;5.53;100.00;101563.44;4974043;28;20582;-77
2021/11/24 07:19:05;;;;;;;4.10;3.50;;;;;;;5.47;100.00;101559.00;4973972;28;20634;-77
2021/11/24 07:21:31;;;;;;;5.83;4.97;;;;;;;5.46;100.00;101560.06;4973807;28;20537;-77
2021/11/24 07:23:56;;;;;;;6.20;5.60;;;;;;;5.49;100.00;101559.56;4973697;28;20189;-76
2021/11/24 07:26:22;;;;;;;11.20;6.50;;;;;;;5.51;100.00;101560.16;4973664;28;20264;-77
2021/11/24 07:28:47;;;;;;;7.63;6.67;;;;;;;5.52;100.00;101553.69;4973700;28;20205;-76
2021/11/24 07:31:13;;;;;;;8.13;5.63;;;;;;;5.53;100.00;101555.31;4973711;28;20185;-77
2021/11/24 07:33:38;;;;;;;5.20;4.53;;;;;;;5.54;100.00;101549.63;4972362;28;20184;-76
2021/11/24 07:36:04;;;;;;;7.17;5.23;;;;;;;5.58;100.00;101555.38;4972177;28;20209;-77
2021/11/24 07:38:29;;;;;;;8.03;5.50;;;;;;;5.60;100.00;101553.22;4973548;28;20206;-77
2021/11/24 07:40:55;;;;;;;6.67;4.03;;;;;;;5.58;100.00;101553.47;4973447;28;20265;-77
2021/11/24 07:43:21;;;;;;;8.57;6.33;;;;;;;5.62;100.00;101556.50;4973317;28;20277;-77
2021/11/24 07:45:46;;;;;;;10.13;3.97;;;;;;;5.65;100.00;101559.56;4973305;28;20209;-76
2021/11/24 07:48:11;;;;;;;4.43;3.53;;;;;;;5.65;100.00;101562.25;4973506;28;20585;-76
2021/11/24 07:50:38;;;;;;;5.77;4.53;;;;;;;5.64;100.00;101559.78;4975944;28;20661;-76
2021/11/24 07:53:03;;;;;;;8.13;6.27;;;;;;;5.65;100.00;101550.59;4973895;28;20594;-76
2021/11/24 07:55:29;;;;;;;3.97;2.77;;;;;;;5.65;100.00;101558.75;4973070;28;20486;-77
2021/11/24 07:57:54;;;;;;;8.17;4.50;;;;;;;5.66;100.00;101554.94;4972998;28;20182;-76
2021/11/24 08:00:20;;;;;;;6.63;4.63;;;;;;;5.67;100.00;101551.16;4973197;28;20393;-77
2021/11/24 08:02:45;;;;;;;3.90;2.97;;;;;;;5.67;100.00;101546.56;4972935;28;20206;-77
2021/11/24 08:05:11;;;;;;;2.20;1.77;;;;;;;5.67;100.00;101552.00;4972950;28;20237;-77
2021/11/24 08:07:36;;;;;;;10.83;5.20;;;;;;;5.67;100.00;101552.00;4972896;28;20206;-76
2021/11/24 08:10:23;;;;;;;9.83;5.33;;;;;;;5.73;100.00;101554.75;5088148;27;20543;-77
2021/11/24 08:12:49;;;;;;;10.83;4.70;;;;;;;5.76;100.00;101543.41;5088433;28;20193;-76
2021/11/24 08:15:15;;;;;;;8.70;6.03;;;;;;;5.77;100.00;101534.19;5088333;28;20181;-77
2021/11/24 08:17:40;;;;;;;7.77;5.70;;;;;;;5.77;100.00;101537.72;5088231;28;20174;-77
2021/11/24 08:20:07;;;;;;;2.33;2.13;;;;;;;5.80;100.00;101523.69;5088158;28;20803;-77
2021/11/24 08:22:32;;;;;;;6.63;4.77;;;;;;;5.79;100.00;101529.34;5088026;28;20262;-77
2021/11/24 08:24:58;;;;;;;7.40;5.23;;;;;;;5.81;100.00;101519.06;5087848;28;20637;-77
2021/11/24 08:27:23;;;;;;;12.20;7.67;;;;;;;5.83;100.00;101522.34;5087989;28;20170;-77
2021/11/24 08:29:49;;;;;;;5.67;4.97;;;;;;;5.84;100.00;101518.56;5087947;28;20688;-77
2021/11/24 08:32:15;;;;;;;3.53;2.67;;;;;;;5.84;100.00;101513.13;5087885;28;20648;-76
2021/11/24 08:34:40;;;;;;;8.87;5.13;;;;;;;5.87;100.00;101515.34;5087786;28;20178;-77
2021/11/24 08:37:05;;;;;;;5.67;4.07;;;;;;;5.88;100.00;101515.09;5087623;28;20711;-78
2021/11/24 08:39:31;;;;;;;4.93;3.47;;;;;;;5.96;100.00;101511.97;5087685;28;20188;-74
2021/11/24 08:41:56;;;;;;;9.60;5.20;;;;;;;6.00;100.00;101512.25;5087692;28;20170;-76
2021/11/24 08:44:22;;;;;;;3.67;3.37;;;;;;;6.03;100.00;101510.94;5087625;28;20189;-75
2021/11/24 08:46:47;;;;;;;3.27;2.90;;;;;;;6.02;100.00;101504.69;5087405;28;20224;-75
2021/11/24 08:49:13;;;;;;;6.40;3.70;;;;;;;6.07;100.00;101503.91;5087986;28;20293;-75
2021/11/24 08:51:39;;;;;;;4.77;4.30;;;;;;;6.10;100.00;101506.13;5087461;28;20174;-75
2021/11/24 08:54:07;;;;;;;6.20;3.70;;;;;;;6.10;100.00;101506.13;5087474;28;20272;-75
2021/11/24 08:56:34;;;;;;;9.23;3.80;;;;;;;6.12;100.00;101512.13;5087243;28;20178;-75
2021/11/24 08:59:04;;;;;;;6.00;3.37;;;;;;;6.14;100.00;101512.69;5087403;28;20180;-75
2021/11/24 09:01:33;;;;;;;2.43;2.07;;;;;;;6.16;100.00;101510.53;5087272;28;20214;-75
2021/11/24 09:03:58;;;;;;;5.20;3.80;;;;;;;6.18;100.00;101503.78;5087151;28;20182;-83
2021/11/24 09:06:24;;;;;;;5.77;4.77;;;;;;;6.25;100.00;101496.25;5085769;28;20189;-81
2021/11/24 09:08:49;;;;;;;3.00;2.80;;;;;;;6.29;100.00;101498.44;5086932;28;20201;-84
2021/11/24 09:11:14;;;;;;;6.33;4.57;;;;;;;6.30;100.00;101494.66;5087267;28;20217;-74
2021/11/24 09:13:40;;;;;;;5.37;3.37;;;;;;;6.35;100.00;101495.53;5087047;28;20248;-76
2021/11/24 09:16:05;;;;;;;5.83;3.80;;;;;;;6.39;100.00;101487.69;5086961;28;20170;-75
2021/11/24 09:18:30;;;;;;;6.17;4.17;;;;;;;6.42;100.00;101493.44;5087057;28;20182;-75
2021/11/24 09:20:56;;;;;;;8.30;4.07;;;;;;;6.52;100.00;101495.44;5076987;28;20186;-75
2021/11/24 09:23:23;;;;;;;5.87;3.63;;;;;;;6.55;100.00;101495.72;5073382;28;20170;-75
2021/11/24 09:26:15;;;;;;;4.80;3.20;;;;;;;6.57;100.00;101501.69;5073362;28;20173;-75
2021/11/24 09:28:41;;;;;;;3.10;2.50;;;;;;;6.61;100.00;101496.56;5072190;28;20836;-75
2021/11/24 09:31:07;;;;;;;3.57;2.90;;;;;;;6.61;100.00;101495.75;5073127;28;20175;-75
2021/11/24 09:33:34;;;;;;;3.23;2.77;;;;;;;6.64;100.00;101495.22;5073172;28;20179;-75
2021/11/24 09:36:03;;;;;;;5.43;3.07;;;;;;;6.68;100.00;101493.66;5073017;28;20206;-75
2021/11/24 09:38:30;;;;;;;3.07;2.27;;;;;;;6.67;100.00;101489.31;5072879;28;20179;-75
2021/11/24 09:41:01;;;;;;;5.67;3.37;;;;;;;6.73;100.00;101489.06;5072017;28;20262;-75
2021/11/24 09:43:30;;;;;;;5.27;3.73;;;;;;;6.75;100.00;101483.38;5072862;28;20179;-75
2021/11/24 09:45:57;;;;;;;6.10;3.60;;;;;;;6.80;100.00;101478.81;5072813;28;20531;-75
2021/11/24 09:48:22;;;;;;;6.40;3.77;;;;;;;6.85;100.00;101480.75;5072641;28;20248;-75
2021/11/24 09:50:49;;;;;;;4.53;3.67;;;;;;;6.88;100.00;101485.66;5071509;28;20175;-75
2021/11/24 09:53:17;;;;;;;5.93;4.23;;;;;;;6.94;100.00;101486.50;5071639;28;20198;-75
2021/11/24 09:55:42;;;;;;;5.60;3.77;;;;;;;7.00;100.00;101482.75;5072540;28;20239;-75
2021/11/24 09:58:09;;;;;;;5.33;4.03;;;;;;;7.00;100.00;101488.19;5072442;28;20182;-75
2021/11/24 10:00:38;;;;;;;3.50;3.20;;;;;;;7.03;100.00;101483.03;5072818;28;20173;-75
2021/11/24 10:03:04;;;;;;;3.20;2.60;;;;;;;7.01;100.00;101468.91;5072687;28;20175;-75
2021/11/24 10:05:31;;;;;;;6.33;2.40;;;;;;;7.03;100.00;101465.91;5072843;28;20231;-75
2021/11/24 10:07:57;;;;;;;3.37;2.83;;;;;;;7.06;100.00;101470.81;5072192;28;20204;-75
2021/11/24 10:10:23;;;;;;;3.57;2.43;;;;;;;7.07;100.00;101456.16;5072442;28;20182;-75
2021/11/24 10:12:49;;;;;;;3.50;2.57;;;;;;;7.06;100.00;101459.94;5072504;28;20220;-75
2021/11/24 10:15:32;;;;;;;3.73;2.10;;;;;;;7.05;100.00;101442.81;5072332;28;20607;-75
2021/11/24 10:18:15;;;;;;;1.23;0.93;;;;;;;7.06;100.00;101449.06;5072376;28;20533;-75
2021/11/24 10:20:57;;;;;;;2.67;2.33;;;;;;;7.04;100.00;101454.78;5071886;28;20171;-76
2021/11/24 10:23:32;;;;;;;3.87;3.03;;;;;;;7.07;100.00;101451.53;5071964;28;20224;-75
2021/11/24 10:26:23;;;;;;;3.00;2.70;;;;;;;7.11;100.00;101444.50;5070254;28;20178;-75
2021/11/24 10:28:57;;;;;;;3.50;2.70;;;;;;;7.19;100.00;101447.78;5071876;28;20205;-75
2021/11/24 10:31:29;;;;;;;2.80;2.53;;;;;;;7.23;100.00;101443.47;5070958;28;20179;-75
2021/11/24 10:33:56;;;;;;;4.77;3.33;;;;;;;7.25;100.00;101435.88;5071550;28;20213;-75
2021/11/24 10:36:22;;;;;;;4.30;2.90;;;;;;;7.25;100.00;101436.69;5070177;28;20177;-75
2021/11/24 10:38:51;;;;;;;3.23;2.37;;;;;;;7.31;100.00;101437.53;5071659;28;20257;-75
2021/11/24 10:41:30;;;;;;;3.27;2.23;;;;;;;7.31;100.00;101421.22;5071589;28;20198;-75
2021/11/24 10:43:55;;;;;;;3.17;2.87;;;;;;;7.34;100.00;101417.97;5071756;28;20167;-75
2021/11/24 10:46:25;;;;;;;3.27;2.57;;;;;;;7.37;100.00;101418.25;5071503;28;20174;-75
2021/11/24 10:49:10;;;;;;;5.10;2.47;;;;;;;7.47;100.00;101412.84;5071780;28;20664;-75
2021/11/24 10:51:42;;;;;;;3.27;2.20;;;;;;;7.46;100.00;101405.78;5070060;28;20178;-75
2021/11/24 10:54:16;;;;;;;2.57;1.97;;;;;;;7.52;99.67;101412.03;5071274;28;20659;-75
2021/11/24 10:57:14;;;;;;;2.27;1.63;;;;;;;7.54;96.93;101400.94;5071118;28;20227;-75
2021/11/24 10:59:44;;;;;;;2.77;1.60;;;;;;;7.51;95.76;101399.53;5026059;28;20672;-75
2021/11/24 11:02:35;;;;;;;2.70;1.83;;;;;;;7.52;96.24;101398.44;5071184;28;20166;-75
2021/11/24 11:05:02;;;;;;;2.33;1.83;;;;;;;7.47;95.32;101398.44;5071009;28;20205;-75
2021/11/24 11:07:29;;;;;;;2.27;1.70;;;;;;;7.47;95.33;101393.00;5071145;28;20170;-75
2021/11/24 11:10:06;;;;;;;1.30;1.13;;;;;;;7.39;94.37;101385.38;5070861;28;20684;-75
2021/11/24 11:12:32;;;;;;;1.87;1.40;;;;;;;7.24;95.32;101383.44;5070989;28;20273;-75
2021/11/24 11:15:30;;;;;;;2.30;1.47;;;;;;;7.21;95.57;101373.06;5070660;28;20178;-75
2021/11/24 11:18:08;;;;;;;0.57;0.57;;;;;;;7.16;94.81;101364.91;5070922;28;20174;-74
2021/11/24 11:20:35;;;;;;;2.20;1.43;;;;;;;7.06;92.50;101360.22;5066648;28;20175;-74